Flight Track Log - Related Links

Times and Time Zones

All times are in EDT time to prevent confusion due to time zone crossing. See the SWA1736 flight status page for this flight to view local times or setup timezone preferences in your user account.

Time Position Orientation Groundspeed Altitude Reporting Facility
EDT Latitude Longitude Course Direction KTS MPH feet Rate Location/Type
Sun 07:54:18 PM 33.9400 -118.4411 219° Southwest 130 150 1,300  Level Los Angeles Center
Sun 07:55:20 PM 33.8775 -118.5031 219° Southwest 213 245 3,800 2,226 Climbing Los Angeles Center
Sun 07:56:22 PM 33.8203 -118.5497 214° Southwest 268 308 5,900 2,274 Climbing Los Angeles Center
Sun 07:57:24 PM 33.7469 -118.5258 165° South 279 321 8,500 2,592 Climbing Los Angeles Center
Sun 07:58:27 PM 33.6764 -118.4833 153° Southeast 298 343 11,300 2,758 Climbing Los Angeles Center
Sun 07:59:28 PM 33.6531 -118.3617 103° East 320 368 14,200 2,976 Climbing Los Angeles Center
Sun 08:00:30 PM 33.6403 -118.2497 98° East 347 399 17,400 2,855 Climbing Los Angeles Center
Sun 08:01:32 PM 33.6444 -118.1306 88° East 360 414 20,100 2,516 Climbing Los Angeles Center
Sun 08:02:34 PM 33.6447 -117.9792 90° East 372 428 22,600 1,403 Climbing Los Angeles Center
Sun 08:03:36 PM 33.6444 -117.8508 90° East 379 436 23,000 221 Climbing Los Angeles Center
Sun 08:04:50 PM 33.6444 -117.7189 90° East 392 451 23,100 1,226 Climbing Los Angeles Center
Sun 08:05:53 PM 33.6442 -117.5592 90° East 399 459 25,800 2,226 Climbing Los Angeles Center
Sun 08:06:54 PM 33.6436 -117.4489 90° East 407 468 27,700 2,419 Climbing Los Angeles Center
Sun 08:07:57 PM 33.6425 -117.2872 90° East 408 470 30,800 2,496 Climbing Los Angeles Center
Sun 08:08:59 PM 33.6425 -117.1253 90° East 405 466 32,900 1,065 Climbing Los Angeles Center
Sun 08:10:01 PM 33.6372 -116.9889 93° East 410 472 33,000 48 Climbing Los Angeles Center
Sun 08:11:03 PM 33.6367 -116.8458 90° East 413 475 33,000  Level Los Angeles Center
Sun 08:12:05 PM 33.6347 -116.7119 91° East 405 466 33,000  Level Los Angeles Center
Sun 08:13:08 PM 33.6336 -116.5772 91° East 403 464 33,000  Level Los Angeles Center
Sun 08:14:10 PM 33.6325 -116.4447 91° East 398 458 33,000  Level Los Angeles Center
Sun 08:15:12 PM 33.6300 -116.3139 91° East 393 452 33,000  Level Los Angeles Center
Sun 08:16:14 PM 33.6275 -116.1578 91° East 391 450 33,000  Level Los Angeles Center
Sun 08:17:16 PM 33.6244 -116.0281 92° East 390 449 33,000  Level Los Angeles Center
Sun 08:18:18 PM 33.6228 -115.8975 91° East 391 450 33,000  Level Los Angeles Center
Sun 08:19:20 PM 33.6192 -115.7678 92° East 391 450 33,000  Level Los Angeles Center
Sun 08:20:22 PM 33.6175 -115.6372 91° East 391 450 33,000  Level Los Angeles Center
Sun 08:21:24 PM 33.6125 -115.5056 93° East 394 453 33,000  Level Los Angeles Center
Sun 08:22:26 PM 33.6097 -115.3497 91° East 390 449 33,000  Level Los Angeles Center
Sun 08:23:28 PM 33.6067 -115.2206 92° East 388 447 33,000  Level Los Angeles Center
Sun 08:24:30 PM 33.5922 -115.0933 98° East 388 447 33,000  Level Los Angeles Center
Sun 08:25:33 PM 33.5758 -114.9672 99° East 383 441 33,000  Level Los Angeles Center
Sun 08:26:35 PM 33.5603 -114.8375 98° East 393 452 33,000  Level Los Angeles Center
Sun 08:27:37 PM 33.5436 -114.7108 99° East 390 449 33,000 -823 Level Los Angeles Center
Sun 08:28:39 PM 33.5239 -114.5575 99° East 387 445 31,300 -1,532 Descending Los Angeles Center
Sun 08:29:11 PM 33.5211 -114.5153 95° East 387 445 30,600 -2,065 Descending Albuquerque Center
Sun 08:30:12 PM 33.5025 -114.3678 99° East 376 433 28,100 -2,049 Descending Albuquerque Center
Sun 08:31:14 PM 33.4856 -114.2467 99° East 371 427 26,400 -1,512 Descending Albuquerque Center
Sun 08:32:15 PM 33.4689 -114.1222 99° East 377 434 25,000 -683 Descending Albuquerque Center
Sun 08:33:17 PM 33.4489 -114.0008 101° East 374 430 25,000  Level Albuquerque Center
Sun 08:34:18 PM 33.4219 -113.8806 105° East 374 430 25,000  Level Albuquerque Center
Sun 08:35:20 PM 33.3994 -113.7603 103° East 372 428 25,000 -195 Level Albuquerque Center
Sun 08:36:21 PM 33.3750 -113.6444 104° East 364 419 24,600 -878 Descending Albuquerque Center
Sun 08:37:23 PM 33.3536 -113.5381 104° East 337 388 23,200 -1,268 Descending Albuquerque Center
Sun 08:38:24 PM 33.3283 -113.4139 104° East 324 373 22,000 -1,131 Descending Albuquerque Center
Sun 08:39:25 PM 33.3075 -113.3147 104° East 313 360 20,900 -1,317 Descending Albuquerque Center
Sun 08:40:27 PM 33.2878 -113.2189 104° East 302 348 19,300 -1,512 Descending Albuquerque Center
Sun 08:41:28 PM 33.2736 -113.1208 100° East 300 345 17,800 -1,122 Descending Albuquerque Center
Sun 08:42:30 PM 33.2753 -113.0197 89° East 303 349 17,000 -390 Descending Albuquerque Center
Sun 08:43:31 PM 33.2775 -112.9208 88° East 299 344 17,000 -492 Level Albuquerque Center
Sun 08:44:32 PM 33.2800 -112.8239 88° East 295 339 16,000 -488 Descending Albuquerque Center
Sun 08:45:34 PM 33.2819 -112.7283 89° East 290 334 16,000 -293 Level Albuquerque Center
Sun 08:46:35 PM 33.2839 -112.6308 89° East 292 336 15,400 -1,131 Descending Albuquerque Center
Sun 08:47:36 PM 33.2869 -112.5269 88° East 286 329 13,700 -1,610 Descending Albuquerque Center
Sun 08:48:38 PM 33.2897 -112.4325 88° East 286 329 12,100 -1,366 Descending Albuquerque Center
Sun 08:49:39 PM 33.2931 -112.3358 88° East 291 335 10,900 -541 Descending Albuquerque Center
Sun 08:50:40 PM 33.2986 -112.2506 86° East 270 311 11,000 -390 Climbing Albuquerque Center
Sun 08:51:42 PM 33.3056 -112.1742 84° East 243 280 10,100 -1,122 Descending Albuquerque Center
Sun 08:52:43 PM 33.3136 -112.0828 84° East 234 269 8,700 -1,180 Descending Albuquerque Center
Sun 08:53:44 PM 33.3336 -112.0064 73° East 241 277 7,700 -829 Descending Albuquerque Center
Sun 08:54:46 PM 33.3469 -111.9286 78° East 240 276 7,000 -585 Descending Albuquerque Center
Sun 08:55:47 PM 33.3456 -111.8531 91° East 232 267 6,500 -689 Descending Albuquerque Center
Sun 08:56:48 PM 33.3447 -111.7753 91° East 234 269 5,600 -780 Descending Albuquerque Center
Sun 08:57:50 PM 33.3883 -111.7419 33° Northeast 227 261 4,900 -732 Descending Albuquerque Center
Sun 08:58:51 PM 33.4114 -111.8047 294° West 215 247 4,100 -774 Descending Albuquerque Center
Sun 08:59:54 PM 33.4236 -111.8642 284° West 201 231 3,300 -919 Descending Albuquerque Center
Sun 09:00:55 PM 33.4336 -111.9286 281° West 181 208 2,200 -934 Descending Albuquerque Center
Sun 09:01:56 PM 33.4314 -111.9758 267° West 160 184 1,400 -787 Descending Albuquerque Center

Login

Don't have an account? Register now (free) for customized features, flight alerts, and more!